Terminal Aerodrome Forecast
Issued by NWS

Home | Current Version | Previous Version | Graphics & Text | Print | Product List | Glossary On
Versions: 1 2 3 4 5 6 7 8 9 10 11 12 13 14 15 16 17 18
000
FTUS43 KTOP 022051 AAA
TAFMHK
TAF AMD
KMHK 022051Z 0221/0318 10006KT P6SM SHRA VCTS OVC019CB
     FM022200 11005KT P6SM VCTS BKN035CB
     FM030000 VRB04KT P6SM BKN040
     FM030400 02002KT 4SM BR BKN015
     FM031400 01005KT P6SM BKN015=

USA.gov is the U.S. government's official web portal to all federal, state and local government web resources and services.